Time;durP1;ratioP1;P1;durP2;ratioP2;P2;SDS_P1;SDS_P2;PMS_P1;PMS_P2;Temp;Humidity;BMP_temperature;BMP_pressure;BME280_temperature;BME280_humidity;BME280_pressure;Samples;Min_cycle;Max_cycle;Signal;HPM_P1;HPM_P2
2021/06/30 00:00:41;;;;;;;5.40;4.10;;;14.80;99.90;;;;;;4161993;28;20671;-84
2021/06/30 00:02:41;;;;;;;4.40;3.95;;;14.80;99.90;;;;;;4164395;28;20423;-84
2021/06/30 00:04:42;;;;;;;5.90;4.30;;;14.70;99.90;;;;;;4162613;28;20033;-85
2021/06/30 00:06:43;;;;;;;6.18;4.93;;;14.70;99.90;;;;;;4163368;28;20068;-85
2021/06/30 00:08:54;;;;;;;6.30;4.93;;;14.50;99.90;;;;;;4162915;28;20068;-84
2021/06/30 00:11:05;;;;;;;8.98;5.75;;;14.50;99.90;;;;;;4162967;28;20095;-85
2021/06/30 00:13:07;;;;;;;8.15;5.63;;;14.40;99.90;;;;;;4162558;28;20092;-85
2021/06/30 00:15:20;;;;;;;8.23;5.53;;;14.40;99.90;;;;;;4163040;28;20416;-84
2021/06/30 00:17:24;;;;;;;7.10;5.22;;;14.40;99.90;;;;;;4163854;28;20141;-84
2021/06/30 00:19:26;;;;;;;;;;;14.40;99.90;;;;;;4163037;28;20530;-83
2021/06/30 00:21:27;;;;;;;8.18;5.50;;;14.40;99.90;;;;;;4162309;28;19921;-84
2021/06/30 00:23:28;;;;;;;8.77;5.60;;;14.40;99.90;;;;;;4161673;28;20038;-84
2021/06/30 00:25:29;;;;;;;6.63;5.68;;;14.40;99.90;;;;;;4162621;28;20346;-84
2021/06/30 00:27:30;;;;;;;9.88;6.30;;;14.40;99.90;;;;;;4163208;28;20056;-83
2021/06/30 00:29:30;;;;;;;8.40;6.65;;;14.40;99.90;;;;;;4161344;28;20084;-83
2021/06/30 00:31:36;;;;;;;9.15;6.07;;;14.30;99.90;;;;;;4162838;28;20076;-84
2021/06/30 00:33:39;;;;;;;7.80;6.10;;;14.30;99.90;;;;;;4161565;28;20143;-83
2021/06/30 00:35:41;;;;;;;9.80;7.82;;;14.30;99.90;;;;;;4156881;28;20033;-83
2021/06/30 00:37:55;;;;;;;8.13;5.80;;;14.30;99.90;;;;;;4162190;28;20490;-83
2021/06/30 00:40:04;;;;;;;8.63;6.28;;;14.40;99.90;;;;;;4147802;28;20125;-83
2021/06/30 00:42:10;;;;;;;7.07;6.38;;;14.40;99.90;;;;;;4161153;28;20022;-82
2021/06/30 00:44:14;;;;;;;7.68;5.93;;;14.40;99.90;;;;;;4161580;28;20112;-83
2021/06/30 00:46:32;;;;;;;9.02;6.90;;;14.40;99.90;;;;;;4162809;28;20025;-83
2021/06/30 00:48:40;;;;;;;7.78;6.85;;;14.40;99.90;;;;;;4161278;28;20484;-83
2021/06/30 00:50:47;;;;;;;8.90;6.60;;;14.30;99.90;;;;;;4161828;28;20037;-83
2021/06/30 00:52:49;;;;;;;11.43;6.80;;;14.30;99.90;;;;;;4161571;28;20397;-84
2021/06/30 00:54:51;;;;;;;9.65;7.88;;;14.20;99.90;;;;;;4169173;28;20040;-83
2021/06/30 00:57:01;;;;;;;8.63;6.63;;;14.20;99.90;;;;;;4162794;28;20377;-83
2021/06/30 00:59:03;;;;;;;7.75;6.35;;;14.20;99.90;;;;;;4161299;28;20033;-83
2021/06/30 01:01:04;;;;;;;10.00;7.60;;;14.20;99.90;;;;;;4150199;28;20500;-83
2021/06/30 01:03:05;;;;;;;8.60;7.00;;;14.20;99.90;;;;;;4162544;28;20087;-83
2021/06/30 01:05:08;;;;;;;11.82;7.47;;;14.20;99.90;;;;;;4161600;28;20081;-83
2021/06/30 01:07:09;;;;;;;8.98;7.38;;;14.20;99.90;;;;;;4161265;28;20033;-83
2021/06/30 01:09:12;;;;;;;10.68;6.82;;;14.20;99.90;;;;;;4161508;28;20025;-84
2021/06/30 01:11:14;;;;;;;10.20;7.35;;;14.20;99.90;;;;;;4161494;28;20113;-84
2021/06/30 01:13:15;;;;;;;9.27;6.85;;;14.30;99.90;;;;;;4161826;28;20077;-84
2021/06/30 01:15:25;;;;;;;8.52;7.03;;;14.30;99.90;;;;;;4160020;28;20034;-83
2021/06/30 01:17:26;;;;;;;11.50;8.05;;;14.30;99.90;;;;;;4156126;28;20132;-84
2021/06/30 01:19:29;;;;;;;11.43;7.50;;;14.20;99.90;;;;;;4139367;28;1052411;-84
2021/06/30 01:21:33;;;;;;;9.52;6.97;;;14.20;99.90;;;;;;4155324;28;20080;-84
2021/06/30 01:23:36;;;;;;;10.20;7.25;;;14.20;99.90;;;;;;4162760;28;20477;-83
2021/06/30 01:25:43;;;;;;;11.27;7.25;;;14.20;99.90;;;;;;4165531;28;20416;-84
2021/06/30 01:27:44;;;;;;;9.73;6.70;;;14.30;99.90;;;;;;4165316;28;20089;-84
2021/06/30 01:29:49;;;;;;;9.45;6.40;;;14.30;99.90;;;;;;4167131;28;20038;-85
2021/06/30 01:31:51;;;;;;;10.10;6.63;;;14.30;99.90;;;;;;4164857;28;20037;-84
2021/06/30 01:34:01;;;;;;;10.23;6.57;;;14.20;99.90;;;;;;4165754;28;20029;-84
2021/06/30 01:36:02;;;;;;;8.50;7.03;;;14.30;99.90;;;;;;4164087;28;20034;-84
2021/06/30 01:38:03;;;;;;;8.02;6.03;;;14.30;99.90;;;;;;4165800;28;20477;-83
2021/06/30 01:40:07;;;;;;;8.60;6.70;;;14.30;99.90;;;;;;4164458;28;20401;-84
2021/06/30 01:42:09;;;;;;;10.30;6.47;;;14.30;99.90;;;;;;4155319;28;20385;-84
2021/06/30 01:44:11;;;;;;;9.20;7.22;;;14.30;99.90;;;;;;4160908;28;20021;-84
2021/06/30 01:46:22;;;;;;;9.80;6.78;;;14.30;99.90;;;;;;4164536;28;20036;-84
2021/06/30 01:48:24;;;;;;;10.93;6.13;;;14.30;99.90;;;;;;4180566;28;20036;-84
2021/06/30 01:50:31;;;;;;;8.05;5.75;;;14.30;99.90;;;;;;4166520;28;20057;-83
2021/06/30 01:52:40;;;;;;;10.57;5.70;;;14.30;99.90;;;;;;4167515;28;20037;-84
2021/06/30 01:54:41;;;;;;;10.25;5.85;;;14.30;99.90;;;;;;4180522;28;20037;-83
2021/06/30 01:56:50;;;;;;;8.90;5.97;;;14.30;99.90;;;;;;4163465;28;20056;-84
2021/06/30 01:59:05;;;;;;;8.98;7.00;;;14.30;99.90;;;;;;4163667;28;20049;-81
2021/06/30 02:01:09;;;;;;;9.90;6.60;;;14.30;99.90;;;;;;4162369;28;20037;-84
2021/06/30 02:03:10;;;;;;;8.43;6.07;;;14.20;99.90;;;;;;4161605;28;20116;-83
2021/06/30 02:05:13;;;;;;;9.20;6.57;;;14.20;99.90;;;;;;4165795;28;20034;-84
2021/06/30 02:07:14;;;;;;;9.50;6.50;;;14.20;99.90;;;;;;4165634;28;20022;-83
2021/06/30 02:09:21;;;;;;;8.88;6.18;;;14.20;99.90;;;;;;4164599;28;20100;-83
2021/06/30 02:11:22;;;;;;;8.07;6.78;;;14.20;99.90;;;;;;4152951;28;20481;-83
2021/06/30 02:13:23;;;;;;;8.23;6.28;;;14.20;99.90;;;;;;4152384;28;20025;-83
2021/06/30 02:15:30;;;;;;;9.20;6.50;;;14.20;99.90;;;;;;4163481;28;20025;-83
2021/06/30 02:17:33;;;;;;;10.32;6.93;;;14.30;99.90;;;;;;4164584;28;20026;-83
2021/06/30 02:19:34;;;;;;;;;;;14.20;99.90;;;;;;4164313;28;20057;-83
2021/06/30 02:21:35;;;;;;;9.13;6.40;;;14.20;99.90;;;;;;4165459;28;19913;-83
2021/06/30 02:23:35;;;;;;;8.13;6.25;;;14.30;99.90;;;;;;4165260;28;20025;-82
2021/06/30 02:25:37;;;;;;;10.05;6.60;;;14.30;99.90;;;;;;4164370;28;20041;-83
2021/06/30 02:27:40;;;;;;;9.70;7.35;;;14.30;99.90;;;;;;4165533;28;20037;-83
2021/06/30 02:29:43;;;;;;;9.82;7.13;;;14.30;99.90;;;;;;4164216;28;20025;-83
2021/06/30 02:31:45;;;;;;;7.30;6.07;;;14.30;99.90;;;;;;4165962;28;20029;-83
2021/06/30 02:33:48;;;;;;;9.55;6.93;;;14.30;99.90;;;;;;4164188;28;20041;-84
2021/06/30 02:35:51;;;;;;;10.18;6.47;;;14.30;99.90;;;;;;4164556;28;20132;-83
2021/06/30 02:37:59;;;;;;;8.27;6.32;;;14.30;99.90;;;;;;4164373;28;20187;-84
2021/06/30 02:40:05;;;;;;;9.00;5.63;;;14.30;99.90;;;;;;4166744;28;20036;-84
2021/06/30 02:42:06;;;;;;;14.02;7.45;;;14.30;99.90;;;;;;4182979;28;20025;-83
2021/06/30 02:44:07;;;;;;;8.30;6.60;;;14.20;99.90;;;;;;4157538;28;20061;-83
2021/06/30 02:46:08;;;;;;;7.78;5.88;;;14.20;99.90;;;;;;4164243;28;20100;-82
2021/06/30 02:48:09;;;;;;;7.68;5.93;;;14.30;99.90;;;;;;4163901;28;20244;-83
2021/06/30 02:50:15;;;;;;;11.25;6.80;;;14.30;99.90;;;;;;4165171;28;20075;-83
2021/06/30 02:52:16;;;;;;;5.90;5.10;;;14.30;99.90;;;;;;4167396;28;20078;-83
2021/06/30 02:54:17;;;;;;;8.77;6.47;;;14.30;99.90;;;;;;4164762;28;20029;-83
2021/06/30 02:56:25;;;;;;;10.68;6.00;;;14.30;99.90;;;;;;4166392;28;20116;-83
2021/06/30 02:58:25;;;;;;;8.40;6.13;;;14.30;99.90;;;;;;4164949;28;20965;-83
2021/06/30 03:00:27;;;;;;;8.25;6.32;;;14.30;99.90;;;;;;4165099;28;20079;-83
2021/06/30 03:02:36;;;;;;;9.63;6.07;;;14.30;99.90;;;;;;4164890;28;20112;-83
2021/06/30 03:04:37;;;;;;;9.55;6.70;;;14.30;99.90;;;;;;4163224;28;20116;-83
2021/06/30 03:06:39;;;;;;;9.73;6.28;;;14.20;99.90;;;;;;4163325;28;20041;-83
2021/06/30 03:08:40;;;;;;;10.18;6.70;;;14.30;99.90;;;;;;4165397;28;20029;-83
2021/06/30 03:10:41;;;;;;;11.05;6.45;;;14.30;99.90;;;;;;4163048;28;20143;-84
2021/06/30 03:12:49;;;;;;;10.80;6.53;;;14.30;99.90;;;;;;4164384;28;20034;-83
2021/06/30 03:14:50;;;;;;;13.18;7.60;;;14.30;99.90;;;;;;4164332;28;20720;-84
2021/06/30 03:16:51;;;;;;;10.07;7.05;;;14.30;99.90;;;;;;4166535;28;20033;-84
2021/06/30 03:18:54;;;;;;;10.30;7.53;;;14.20;99.90;;;;;;4163312;28;20045;-83
2021/06/30 03:20:54;;;;;;;11.57;6.82;;;14.20;99.90;;;;;;4163842;28;20049;-84
2021/06/30 03:22:58;;;;;;;12.23;7.70;;;14.20;99.90;;;;;;4164499;28;20022;-83
2021/06/30 03:24:59;;;;;;;11.60;7.32;;;14.20;99.90;;;;;;4165122;28;20025;-83
2021/06/30 03:27:06;;;;;;;11.32;6.82;;;14.20;99.90;;;;;;4163449;28;20084;-83
2021/06/30 03:29:17;;;;;;;14.50;7.30;;;14.20;99.90;;;;;;4163266;28;20572;-83
2021/06/30 03:31:18;;;;;;;12.40;7.60;;;14.20;99.90;;;;;;4164438;28;20080;-83
2021/06/30 03:33:19;;;;;;;11.07;7.53;;;14.20;99.90;;;;;;4163345;28;20037;-83
2021/06/30 03:35:23;;;;;;;11.70;7.20;;;14.20;99.90;;;;;;4163423;28;20026;-83
2021/06/30 03:37:24;;;;;;;12.80;7.68;;;14.20;99.90;;;;;;4163471;28;20037;-84
2021/06/30 03:39:24;;;;;;;8.75;7.10;;;14.20;99.90;;;;;;4162938;28;20022;-83
2021/06/30 03:41:26;;;;;;;11.45;7.55;;;14.20;99.90;;;;;;4164999;28;21230;-84
2021/06/30 03:43:27;;;;;;;11.90;7.82;;;14.20;99.90;;;;;;4163429;28;20099;-84
2021/06/30 03:45:28;;;;;;;10.10;6.93;;;14.20;99.90;;;;;;4164846;28;20034;-83
2021/06/30 03:47:29;;;;;;;10.57;6.93;;;14.20;99.90;;;;;;4162546;28;20041;-83
2021/06/30 03:49:36;;;;;;;14.65;7.72;;;14.30;99.90;;;;;;4164499;28;20037;-83
2021/06/30 03:51:40;;;;;;;11.40;6.45;;;14.30;99.90;;;;;;4162895;28;20072;-83
2021/06/30 03:53:42;;;;;;;14.70;7.80;;;14.30;99.90;;;;;;4164769;28;20052;-84
2021/06/30 03:55:44;;;;;;;8.73;6.47;;;14.30;99.90;;;;;;4162641;28;20029;-83
2021/06/30 03:57:44;;;;;;;10.77;6.72;;;14.30;99.90;;;;;;4162934;28;20036;-83
2021/06/30 03:59:45;;;;;;;12.00;6.47;;;14.30;99.90;;;;;;4156733;28;20037;-84
2021/06/30 04:01:46;;;;;;;10.70;6.90;;;14.30;99.90;;;;;;4162316;28;20030;-83
2021/06/30 04:03:56;;;;;;;8.82;5.50;;;14.20;99.90;;;;;;4162634;28;20037;-83
2021/06/30 04:05:58;;;;;;;9.82;5.93;;;14.30;99.90;;;;;;4162768;28;20436;-83
2021/06/30 04:08:14;;;;;;;7.65;6.18;;;14.40;99.90;;;;;;4162442;28;20527;-83
2021/06/30 04:10:16;;;;;;;8.32;6.10;;;14.40;99.90;;;;;;4178643;28;20079;-83
2021/06/30 04:12:22;;;;;;;10.45;6.45;;;14.30;99.90;;;;;;4162098;28;20034;-83
2021/06/30 04:14:23;;;;;;;9.32;5.80;;;14.30;99.90;;;;;;4162684;28;20499;-84
2021/06/30 04:16:24;;;;;;;11.63;6.07;;;14.40;99.90;;;;;;4162515;28;20030;-83
2021/06/30 04:18:24;;;;;;;8.85;5.82;;;14.30;99.90;;;;;;4154514;28;20041;-83
2021/06/30 04:20:26;;;;;;;9.88;6.25;;;14.30;99.90;;;;;;4157851;28;20882;-83
2021/06/30 04:22:30;;;;;;;9.52;5.88;;;14.30;99.90;;;;;;4161653;28;20053;-84
2021/06/30 04:24:32;;;;;;;9.90;6.28;;;14.30;99.90;;;;;;4162220;28;20149;-83
2021/06/30 04:26:36;;;;;;;8.18;5.90;;;14.30;99.90;;;;;;4161978;28;20047;-84
2021/06/30 04:28:36;;;;;;;10.90;5.75;;;14.20;99.90;;;;;;4177621;28;20349;-84
2021/06/30 04:30:37;;;;;;;8.57;4.65;;;14.20;99.90;;;;;;4163047;28;20044;-84
2021/06/30 04:32:38;;;;;;;11.02;5.35;;;14.20;99.90;;;;;;4165193;28;20121;-84
2021/06/30 04:34:40;;;;;;;8.77;6.28;;;14.10;99.90;;;;;;4164278;28;20032;-84
2021/06/30 04:36:40;;;;;;;11.68;5.78;;;14.10;99.90;;;;;;4162785;28;20141;-84
2021/06/30 04:38:41;;;;;;;9.73;5.82;;;14.10;99.90;;;;;;4163979;28;20037;-84
2021/06/30 04:40:44;;;;;;;12.25;6.80;;;14.10;99.90;;;;;;4162500;28;20041;-84
2021/06/30 04:42:44;;;;;;;9.55;6.03;;;14.20;99.90;;;;;;4163916;28;20492;-84
2021/06/30 04:44:45;;;;;;;9.82;5.70;;;14.20;99.90;;;;;;4162603;28;20132;-84
2021/06/30 04:46:46;;;;;;;10.55;7.20;;;14.10;99.90;;;;;;4162421;28;20436;-83
2021/06/30 04:48:49;;;;;;;11.30;7.13;;;14.00;99.90;;;;;;4152662;28;20034;-84
2021/06/30 04:50:50;;;;;;;10.25;7.03;;;14.00;99.90;;;;;;4144720;28;20542;-84
2021/06/30 04:52:53;;;;;;;14.15;7.32;;;14.00;99.90;;;;;;4166316;28;20038;-84
2021/06/30 04:54:54;;;;;;;9.73;7.55;;;14.10;99.90;;;;;;4158261;28;20072;-84
2021/06/30 04:56:56;;;;;;;21.33;8.23;;;14.10;99.90;;;;;;4163424;28;20029;-84
2021/06/30 04:59:11;;;;;;;14.30;8.13;;;14.10;99.90;;;;;;4163610;28;20725;-84
2021/06/30 05:01:12;;;;;;;13.80;8.68;;;14.10;99.90;;;;;;4170564;28;20092;-84
2021/06/30 05:03:12;;;;;;;12.43;7.82;;;14.00;99.90;;;;;;4162470;28;20115;-85
2021/06/30 05:05:14;;;;;;;12.52;8.23;;;14.00;99.90;;;;;;4162028;28;20439;-84
2021/06/30 05:07:22;;;;;;;14.43;7.93;;;14.00;99.90;;;;;;4159944;28;20511;-86
2021/06/30 05:09:25;;;;;;;11.63;8.02;;;14.10;99.90;;;;;;4176059;28;20400;-86
2021/06/30 05:11:31;;;;;;;16.42;8.38;;;14.10;99.90;;;;;;4163467;28;20044;-85
2021/06/30 05:13:32;;;;;;;16.33;8.10;;;14.10;99.90;;;;;;4161296;28;20398;-87
2021/06/30 05:15:33;;;;;;;13.88;8.82;;;14.20;99.90;;;;;;4161428;28;20116;-86
2021/06/30 05:17:34;;;;;;;15.65;8.55;;;14.20;99.90;;;;;;4178803;28;20039;-86
2021/06/30 05:19:35;;;;;;;11.73;8.70;;;14.30;99.90;;;;;;4160268;28;20087;-86
2021/06/30 05:21:35;;;;;;;15.05;8.95;;;14.30;99.90;;;;;;4161867;28;20029;-87
2021/06/30 05:23:37;;;;;;;14.15;9.10;;;14.20;99.90;;;;;;4162124;28;20041;-85
2021/06/30 05:25:44;;;;;;;13.20;8.88;;;14.20;99.90;;;;;;4163096;28;20485;-86
2021/06/30 05:27:45;;;;;;;12.65;8.80;;;14.30;99.90;;;;;;4162141;28;20026;-86
2021/06/30 05:29:46;;;;;;;11.73;7.93;;;14.30;99.90;;;;;;4161568;28;20030;-86
2021/06/30 05:31:54;;;;;;;13.38;8.32;;;14.30;99.90;;;;;;4161992;28;20072;-87
2021/06/30 05:33:56;;;;;;;14.82;13.32;;;14.30;99.90;;;;;;4159742;28;20109;-87
2021/06/30 05:36:01;;;;;;;13.70;9.88;;;14.30;99.90;;;;;;4163352;28;20037;-86
2021/06/30 05:38:03;;;;;;;10.75;8.25;;;14.30;99.90;;;;;;4161862;28;20028;-86
2021/06/30 05:40:05;;;;;;;16.15;13.32;;;14.30;99.90;;;;;;4178267;28;20052;-87
2021/06/30 05:42:14;;;;;;;11.23;7.95;;;14.30;99.90;;;;;;4178371;28;20476;-86
2021/06/30 05:44:25;;;;;;;17.40;11.90;;;14.30;99.90;;;;;;4172976;28;20025;-85
2021/06/30 05:46:33;;;;;;;15.45;9.70;;;14.40;99.90;;;;;;4160345;28;20026;-86
2021/06/30 05:48:34;;;;;;;16.08;11.95;;;14.40;99.90;;;;;;4161060;28;20030;-88
2021/06/30 05:50:35;;;;;;;13.90;9.45;;;14.40;99.90;;;;;;4156388;28;20371;-86
2021/06/30 05:52:38;;;;;;;12.75;8.65;;;14.50;99.90;;;;;;4162552;28;20032;-84
2021/06/30 05:54:38;;;;;;;10.18;8.30;;;14.50;99.90;;;;;;4160234;28;20428;-85
2021/06/30 05:56:41;;;;;;;12.80;9.50;;;14.50;99.90;;;;;;4161158;28;20029;-84
2021/06/30 05:58:42;;;;;;;10.77;8.57;;;14.50;99.90;;;;;;4163040;28;20388;-84
2021/06/30 06:00:44;;;;;;;9.98;8.68;;;14.50;99.90;;;;;;4161546;28;20038;-84
2021/06/30 06:02:46;;;;;;;14.37;8.57;;;14.50;99.90;;;;;;4156266;28;20030;-83
2021/06/30 06:04:47;;;;;;;9.52;7.82;;;14.50;99.90;;;;;;4160442;28;20052;-83
2021/06/30 06:06:48;;;;;;;12.15;8.52;;;14.50;99.90;;;;;;4159731;28;20026;-84
2021/06/30 06:08:49;;;;;;;11.68;8.95;;;14.50;99.90;;;;;;4162578;28;20034;-84
2021/06/30 06:10:49;;;;;;;10.77;8.32;;;14.50;99.90;;;;;;4162801;28;20040;-83
2021/06/30 06:12:50;;;;;;;10.55;8.55;;;14.40;99.90;;;;;;4164965;28;20040;-82
2021/06/30 06:14:51;;;;;;;12.27;8.88;;;14.40;99.90;;;;;;4162999;28;20033;-82
2021/06/30 06:16:51;;;;;;;15.52;8.27;;;14.50;99.90;;;;;;4164914;28;20075;-81
2021/06/30 06:18:52;;;;;;;12.70;7.70;;;14.50;99.90;;;;;;4163116;28;20049;-81
2021/06/30 06:20:53;;;;;;;10.13;8.48;;;14.50;99.90;;;;;;4164137;28;20034;-82
2021/06/30 06:22:54;;;;;;;11.10;8.27;;;14.50;99.90;;;;;;4163951;28;21453;-81
2021/06/30 06:24:55;;;;;;;11.75;8.70;;;14.50;99.90;;;;;;4160702;28;20558;-81
2021/06/30 06:26:57;;;;;;;16.83;9.55;;;14.50;99.90;;;;;;4164647;28;20114;-81
2021/06/30 06:28:59;;;;;;;12.68;8.98;;;14.50;99.90;;;;;;4163782;28;20029;-81
2021/06/30 06:31:02;;;;;;;14.85;9.93;;;14.50;99.90;;;;;;4163141;28;20042;-82
2021/06/30 06:33:03;;;;;;;13.05;9.82;;;14.50;99.90;;;;;;4164855;28;20034;-82
2021/06/30 06:35:06;;;;;;;16.02;10.23;;;14.40;99.90;;;;;;4165227;28;20484;-83
2021/06/30 06:37:11;;;;;;;14.73;9.82;;;14.50;99.90;;;;;;4161704;28;20030;-83
2021/06/30 06:39:12;;;;;;;10.77;9.63;;;14.50;99.90;;;;;;4165472;28;20388;-83
2021/06/30 06:41:14;;;;;;;12.73;9.65;;;14.50;99.90;;;;;;4165166;28;20040;-83
2021/06/30 06:43:15;;;;;;;11.63;10.43;;;14.70;99.90;;;;;;4162782;28;20022;-83
2021/06/30 06:45:16;;;;;;;14.98;11.02;;;14.70;99.90;;;;;;4163863;28;20110;-83
2021/06/30 06:47:17;;;;;;;11.65;9.45;;;14.70;99.90;;;;;;4165009;28;20481;-82
2021/06/30 06:49:18;;;;;;;10.02;8.73;;;14.70;99.90;;;;;;4159020;28;20101;-83
2021/06/30 06:51:19;;;;;;;12.00;9.68;;;14.70;99.90;;;;;;4158943;28;20044;-82
2021/06/30 06:53:19;;;;;;;10.27;9.15;;;14.70;99.90;;;;;;4163830;28;20033;-82
2021/06/30 06:55:20;;;;;;;13.00;10.60;;;14.70;99.90;;;;;;4158954;28;20429;-82
2021/06/30 06:57:21;;;;;;;12.23;10.00;;;14.70;99.90;;;;;;4164921;28;20041;-82
2021/06/30 06:59:24;;;;;;;10.93;9.38;;;14.80;99.90;;;;;;4164953;28;20041;-82
2021/06/30 07:01:25;;;;;;;11.50;9.07;;;14.80;99.90;;;;;;4163884;28;20419;-82
2021/06/30 07:03:26;;;;;;;13.93;10.05;;;14.90;99.90;;;;;;4164155;28;20129;-82
2021/06/30 07:05:27;;;;;;;13.07;10.20;;;14.90;99.90;;;;;;4161880;28;20041;-82
2021/06/30 07:07:27;;;;;;;11.70;10.32;;;14.90;99.90;;;;;;4164036;28;20048;-82
2021/06/30 07:09:28;;;;;;;14.88;10.07;;;15.00;99.90;;;;;;4162966;28;20041;-82
2021/06/30 07:11:29;;;;;;;10.98;9.63;;;15.20;99.90;;;;;;4162936;28;20037;-83
2021/06/30 07:13:29;;;;;;;11.63;10.43;;;15.20;99.90;;;;;;4164578;28;20037;-83
2021/06/30 07:15:31;;;;;;;12.57;10.85;;;15.30;99.90;;;;;;4163860;28;20044;-83
2021/06/30 07:17:34;;;;;;;11.40;10.30;;;15.30;99.90;;;;;;4162429;28;20029;-85
2021/06/30 07:19:35;;;;;;;11.50;9.07;;;15.40;99.90;;;;;;4152282;28;20091;-84
2021/06/30 07:21:36;;;;;;;10.80;9.13;;;15.50;99.90;;;;;;4162397;28;20041;-81
2021/06/30 07:23:38;;;;;;;9.80;8.90;;;15.60;99.90;;;;;;4165171;28;20041;-82
2021/06/30 07:25:40;;;;;;;9.95;8.95;;;15.60;99.90;;;;;;4163425;28;20100;-83
2021/06/30 07:27:49;;;;;;;9.10;8.20;;;15.70;99.90;;;;;;4163419;28;20133;-82
2021/06/30 07:29:56;;;;;;;11.23;9.95;;;15.80;99.90;;;;;;4163659;28;20470;-84
2021/06/30 07:32:00;;;;;;;9.27;8.38;;;15.80;99.90;;;;;;4163456;28;20041;-83
2021/06/30 07:34:01;;;;;;;11.20;8.20;;;15.90;99.90;;;;;;4163366;28;20044;-83
2021/06/30 07:36:01;;;;;;;9.10;7.55;;;16.00;99.90;;;;;;4157406;28;20500;-82
2021/06/30 07:38:03;;;;;;;9.50;8.50;;;16.00;99.90;;;;;;4165280;28;20041;-82
2021/06/30 07:40:05;;;;;;;9.90;8.98;;;15.90;99.90;;;;;;4162678;28;20590;-82
2021/06/30 07:42:06;;;;;;;10.98;9.85;;;15.80;99.90;;;;;;4162698;28;20078;-83
2021/06/30 07:44:14;;;;;;;10.77;9.65;;;15.70;99.90;;;;;;4160529;28;20030;-82
2021/06/30 07:46:17;;;;;;;12.15;9.77;;;15.50;99.90;;;;;;4154937;28;20056;-82
2021/06/30 07:48:18;;;;;;;10.40;9.35;;;15.50;99.90;;;;;;4163008;28;20052;-82
2021/06/30 07:50:19;;;;;;;11.63;10.13;;;15.60;99.90;;;;;;4164426;28;20116;-83
2021/06/30 07:52:20;;;;;;;12.32;9.60;;;15.60;99.90;;;;;;4160930;28;20109;-83
2021/06/30 07:54:21;;;;;;;10.15;8.32;;;15.60;99.90;;;;;;4162965;28;20111;-82
2021/06/30 07:56:38;;;;;;;11.45;9.63;;;15.60;99.90;;;;;;4163000;28;20116;-82
2021/06/30 07:58:39;;;;;;;10.98;9.00;;;15.70;99.90;;;;;;4161574;28;20116;-82
2021/06/30 08:00:42;;;;;;;9.13;8.15;;;15.60;99.90;;;;;;4162136;28;20025;-83
2021/06/30 08:02:43;;;;;;;11.10;9.10;;;15.60;99.90;;;;;;4158180;28;20037;-83
2021/06/30 08:04:43;;;;;;;10.18;9.15;;;15.50;99.90;;;;;;4161548;28;20034;-83
2021/06/30 08:06:44;;;;;;;11.25;9.85;;;15.50;99.90;;;;;;4163859;28;20033;-83
2021/06/30 08:08:44;;;;;;;11.35;9.63;;;15.50;99.90;;;;;;4161038;28;20509;-83
2021/06/30 08:10:45;;;;;;;10.80;9.73;;;15.60;99.90;;;;;;4162310;28;20230;-82
2021/06/30 08:12:45;;;;;;;10.55;8.95;;;15.50;99.90;;;;;;4162932;28;20037;-82
2021/06/30 08:14:47;;;;;;;9.90;9.00;;;15.50;99.90;;;;;;4162322;28;20034;-82
2021/06/30 08:16:48;;;;;;;12.68;9.20;;;15.50;99.90;;;;;;4163344;28;20092;-83
2021/06/30 08:18:49;;;;;;;11.65;9.88;;;15.50;99.90;;;;;;4163811;28;20029;-82
2021/06/30 08:20:51;;;;;;;10.95;9.43;;;15.50;99.90;;;;;;4163017;28;20034;-82
2021/06/30 08:22:52;;;;;;;10.20;8.73;;;15.60;99.90;;;;;;4163505;28;20116;-84
2021/06/30 08:24:52;;;;;;;12.30;9.52;;;15.50;99.90;;;;;;4161283;28;20037;-84
2021/06/30 08:26:55;;;;;;;13.55;9.65;;;15.50;99.90;;;;;;4163360;28;20026;-83
2021/06/30 08:29:02;;;;;;;10.30;9.15;;;15.50;99.90;;;;;;4159424;28;20025;-84
2021/06/30 08:31:06;;;;;;;10.18;9.18;;;15.50;99.90;;;;;;4163090;28;20029;-84
2021/06/30 08:33:06;;;;;;;11.13;9.40;;;15.60;99.90;;;;;;4161079;28;20068;-83
2021/06/30 08:35:07;;;;;;;11.60;8.77;;;15.50;99.90;;;;;;4159727;28;20021;-83
2021/06/30 08:37:08;;;;;;;16.33;9.18;;;15.40;99.90;;;;;;4164045;28;20037;-83
2021/06/30 08:39:10;;;;;;;11.85;9.30;;;15.40;99.90;;;;;;4162429;28;20362;-83
2021/06/30 08:41:11;;;;;;;13.23;9.80;;;15.40;99.90;;;;;;4157764;28;20116;-83
2021/06/30 08:43:14;;;;;;;17.20;10.20;;;15.40;99.90;;;;;;4162583;28;20513;-84
2021/06/30 08:45:17;;;;;;;10.68;9.52;;;15.40;99.90;;;;;;4159560;28;20030;-83
2021/06/30 08:47:21;;;;;;;10.25;9.05;;;15.40;99.90;;;;;;4162167;28;20033;-83
2021/06/30 08:49:26;;;;;;;10.80;8.85;;;15.50;99.90;;;;;;4161325;28;20492;-82
2021/06/30 08:51:27;;;;;;;13.25;10.25;;;15.50;99.90;;;;;;4161804;28;20033;-82
2021/06/30 08:53:29;;;;;;;10.25;9.13;;;15.50;99.90;;;;;;4162777;28;20041;-83
2021/06/30 08:55:37;;;;;;;13.57;8.95;;;15.60;99.90;;;;;;4163545;28;20034;-82
2021/06/30 08:57:38;;;;;;;9.90;8.90;;;15.60;99.90;;;;;;4163129;28;20086;-83
2021/06/30 08:59:39;;;;;;;9.02;8.15;;;15.70;99.90;;;;;;4160697;28;20041;-84
2021/06/30 09:01:40;;;;;;;10.50;8.40;;;15.80;99.90;;;;;;4163054;28;20090;-83
2021/06/30 09:03:49;;;;;;;9.57;7.72;;;15.70;99.90;;;;;;4161440;28;20100;-83
2021/06/30 09:07:55;;;;;;;9.15;7.75;;;15.70;99.90;;;;;;4160832;28;20124;-81
2021/06/30 09:09:55;;;;;;;8.32;7.45;;;15.70;99.90;;;;;;4162999;28;20041;-82
2021/06/30 09:12:00;;;;;;;9.43;8.50;;;15.60;99.90;;;;;;4163170;28;20039;-82
2021/06/30 09:14:37;;;;;;;10.45;8.60;;;15.70;99.90;;;;;;4162894;28;20060;-82
2021/06/30 09:20:01;;;;;;;9.50;8.55;;;15.60;99.90;;;;;;4160707;28;20036;-82
2021/06/30 09:22:01;;;;;;;10.75;8.68;;;15.50;99.90;;;;;;4159567;28;20104;-82
2021/06/30 09:24:18;;;;;;;10.18;9.18;;;15.50;99.90;;;;;;4160266;28;20034;-81
2021/06/30 09:26:18;;;;;;;9.50;7.93;;;15.50;99.90;;;;;;4161086;28;20037;-82
2021/06/30 09:28:25;;;;;;;9.43;8.45;;;15.60;99.90;;;;;;4148016;28;20021;-82
2021/06/30 09:30:28;;;;;;;11.20;9.40;;;15.60;99.90;;;;;;4163003;28;20042;-82
2021/06/30 09:32:30;;;;;;;12.93;8.50;;;15.60;99.90;;;;;;4161629;28;20053;-81
2021/06/30 09:34:34;;;;;;;11.00;7.75;;;15.60;99.90;;;;;;4161682;28;20084;-82
2021/06/30 09:36:54;;;;;;;8.88;7.80;;;15.80;99.90;;;;;;4162769;28;20128;-82
2021/06/30 09:39:05;;;;;;;10.90;7.45;;;15.80;99.90;;;;;;4161830;28;20041;-82
2021/06/30 09:41:06;;;;;;;8.20;7.13;;;15.80;99.90;;;;;;4160863;28;20132;-82
2021/06/30 09:43:32;;;;;;;7.97;7.20;;;15.90;99.90;;;;;;4161754;28;20034;-82
2021/06/30 09:45:34;;;;;;;10.10;7.28;;;16.00;99.90;;;;;;4154290;28;20432;-82
2021/06/30 09:47:49;;;;;;;9.15;7.80;;;16.00;99.90;;;;;;4164211;28;20129;-82
2021/06/30 09:49:58;;;;;;;10.15;8.68;;;16.00;99.90;;;;;;4164036;28;20040;-82
2021/06/30 09:52:17;;;;;;;8.38;7.57;;;16.10;99.90;;;;;;4164241;28;20117;-81
2021/06/30 09:54:19;;;;;;;8.80;8.00;;;16.20;99.90;;;;;;4164198;28;20040;-82
2021/06/30 09:56:33;;;;;;;8.13;7.10;;;16.30;99.90;;;;;;4165662;28;20033;-81
2021/06/30 09:58:34;;;;;;;8.05;7.05;;;16.50;99.90;;;;;;4164115;28;20029;-82
2021/06/30 10:00:36;;;;;;;8.70;6.90;;;16.70;99.90;;;;;;4166262;28;20030;-82
2021/06/30 10:02:40;;;;;;;11.18;7.95;;;16.70;99.90;;;;;;4165139;28;20143;-82
2021/06/30 10:04:44;;;;;;;8.32;7.47;;;16.70;99.90;;;;;;4163753;28;20117;-83
2021/06/30 10:06:44;;;;;;;8.63;7.82;;;16.50;99.90;;;;;;4164162;28;20100;-83
2021/06/30 10:08:45;;;;;;;9.52;6.82;;;16.40;99.90;;;;;;4180198;28;20037;-83
2021/06/30 10:10:48;;;;;;;11.30;7.47;;;16.30;99.90;;;;;;4151255;28;20566;-83
2021/06/30 10:12:49;;;;;;;;;;;16.30;99.90;;;;;;4164951;28;20021;-82
2021/06/30 10:14:53;;;;;;;8.23;7.50;;;16.30;99.90;;;;;;4164481;28;20491;-82
2021/06/30 10:16:54;;;;;;;10.90;7.43;;;16.20;99.90;;;;;;4165637;28;20061;-82
2021/06/30 10:18:57;;;;;;;8.27;7.45;;;16.20;99.90;;;;;;4164263;28;20037;-82
2021/06/30 10:20:57;;;;;;;8.48;7.68;;;16.20;99.90;;;;;;4160106;28;20172;-82
2021/06/30 10:22:58;;;;;;;10.10;9.02;;;16.20;99.90;;;;;;4165101;28;20029;-82
2021/06/30 10:24:59;;;;;;;10.77;7.85;;;16.20;99.90;;;;;;4164227;28;20029;-83
2021/06/30 10:27:00;;;;;;;9.93;8.40;;;16.10;99.90;;;;;;4164208;28;20025;-83
2021/06/30 10:29:02;;;;;;;10.90;8.48;;;16.00;99.90;;;;;;4164700;28;20029;-82
2021/06/30 10:31:05;;;;;;;12.85;9.25;;;16.10;99.90;;;;;;4164202;28;20046;-84
2021/06/30 10:33:07;;;;;;;12.65;11.35;;;16.20;99.90;;;;;;4165079;28;20040;-83
2021/06/30 10:35:18;;;;;;;13.88;11.57;;;16.30;99.90;;;;;;4164829;28;20037;-84
2021/06/30 10:37:25;;;;;;;12.73;11.52;;;16.50;99.90;;;;;;4165210;28;20036;-84
2021/06/30 10:39:50;;;;;;;13.85;11.88;;;16.60;99.90;;;;;;4165882;28;20038;-84
2021/06/30 10:41:55;;;;;;;11.68;10.23;;;16.70;99.90;;;;;;4163221;28;20120;-85